Time;durP1;ratioP1;P1;durP2;ratioP2;P2;SDS_P1;SDS_P2;PMS_P1;PMS_P2;Temp;Humidity;BMP_temperature;BMP_pressure;BME280_temperature;BME280_humidity;BME280_pressure;Samples;Min_cycle;Max_cycle;Signal;HPM_P1;HPM_P2
2023/03/05 00:01:21;;;;;;;25.87;14.93;;;6.70;84.80;;;;;;4943028;29;20225;-78
2023/03/05 00:03:51;;;;;;;28.20;14.33;;;6.70;85.00;;;;;;4935292;29;20210;-79
2023/03/05 00:06:22;;;;;;;21.60;14.17;;;6.70;84.80;;;;;;4934938;29;20534;-78
2023/03/05 00:08:55;;;;;;;18.40;12.73;;;6.60;84.20;;;;;;4939185;29;20240;-78
2023/03/05 00:11:24;;;;;;;24.10;14.00;;;6.60;84.10;;;;;;4940232;29;20205;-78
2023/03/05 00:13:51;;;;;;;21.17;13.53;;;6.50;84.20;;;;;;4940969;29;20254;-78
2023/03/05 00:16:20;;;;;;;22.93;13.20;;;6.40;84.40;;;;;;4922948;29;20206;-78
2023/03/05 00:23:00;;;;;;;19.00;12.87;;;6.30;84.90;;;;;;4930104;29;20249;-78
2023/03/05 00:25:28;;;;;;;21.53;14.40;;;6.30;85.10;;;;;;4936086;29;20651;-78
2023/03/05 00:27:56;;;;;;;23.23;13.20;;;6.30;85.30;;;;;;4935330;29;20642;-79
2023/03/05 00:30:23;;;;;;;21.97;13.53;;;6.20;85.00;;;;;;4939021;29;20254;-78
2023/03/05 00:32:51;;;;;;;22.80;14.17;;;6.20;84.80;;;;;;4931589;29;20258;-79
2023/03/05 00:35:18;;;;;;;19.50;13.47;;;6.20;85.00;;;;;;4935858;29;20576;-78
2023/03/05 00:37:48;;;;;;;19.70;13.13;;;6.10;85.20;;;;;;4933054;29;20291;-79
2023/03/05 00:40:16;;;;;;;21.67;13.53;;;6.20;85.50;;;;;;4939601;29;20207;-79
2023/03/05 00:42:44;;;;;;;21.87;13.20;;;6.20;85.70;;;;;;4935258;29;20270;-78
2023/03/05 00:45:12;;;;;;;20.13;13.57;;;6.20;85.80;;;;;;4942858;29;20211;-78
2023/03/05 00:47:39;;;;;;;22.87;13.97;;;6.20;85.90;;;;;;4931229;29;20643;-79
2023/03/05 00:50:08;;;;;;;24.07;13.67;;;6.20;85.70;;;;;;4938037;29;20195;-78
2023/03/05 00:52:36;;;;;;;22.53;13.87;;;6.20;86.00;;;;;;4921344;29;20283;-78
2023/03/05 00:55:04;;;;;;;21.33;13.03;;;6.20;85.20;;;;;;4940741;29;20202;-79
2023/03/05 00:57:32;;;;;;;17.97;13.13;;;6.20;85.20;;;;;;4935477;29;20251;-79
2023/03/05 00:59:59;;;;;;;24.77;13.83;;;6.10;85.00;;;;;;4940779;29;20222;-79
2023/03/05 01:02:27;;;;;;;21.03;13.47;;;6.10;85.00;;;;;;4921040;29;20203;-79
2023/03/05 01:04:56;;;;;;;19.50;13.37;;;6.10;85.10;;;;;;4942664;29;20199;-79
2023/03/05 01:07:24;;;;;;;23.50;13.67;;;6.00;85.20;;;;;;4937408;29;20202;-78
2023/03/05 01:09:51;;;;;;;27.20;13.30;;;6.10;85.40;;;;;;4921064;29;20210;-79
2023/03/05 01:12:18;;;;;;;19.57;11.87;;;6.00;85.60;;;;;;4920663;29;20265;-79
2023/03/05 01:14:45;;;;;;;20.80;13.10;;;6.10;85.70;;;;;;4932035;29;20633;-80
2023/03/05 01:17:12;;;;;;;18.77;12.47;;;6.10;85.70;;;;;;4932956;29;20656;-79
2023/03/05 01:19:40;;;;;;;26.27;13.27;;;6.20;85.70;;;;;;4928388;29;20219;-78
2023/03/05 01:22:07;;;;;;;23.93;12.63;;;6.20;85.60;;;;;;4947143;29;20680;-78
2023/03/05 01:24:34;;;;;;;15.53;11.47;;;6.20;85.50;;;;;;4922810;29;20214;-79
2023/03/05 01:27:01;;;;;;;15.13;11.43;;;6.30;85.40;;;;;;4938255;29;20250;-79
2023/03/05 01:29:29;;;;;;;17.27;11.93;;;6.30;85.00;;;;;;4937438;29;20199;-78
2023/03/05 01:31:57;;;;;;;19.47;11.63;;;6.20;84.60;;;;;;4930264;29;20231;-79
2023/03/05 01:38:23;;;;;;;22.40;11.70;;;6.20;84.60;;;;;;4932757;29;20246;-78
2023/03/05 01:40:51;;;;;;;16.60;11.57;;;6.10;84.70;;;;;;4933118;29;20196;-78
2023/03/05 01:43:27;;;;;;;21.50;13.13;;;6.10;84.70;;;;;;4918498;29;20225;-78
2023/03/05 01:46:25;;;;;;;17.33;11.73;;;6.10;85.00;;;;;;4944998;29;20205;-78
2023/03/05 01:49:08;;;;;;;17.33;11.67;;;6.00;85.10;;;;;;4935668;29;20213;-78
2023/03/05 01:52:08;;;;;;;22.43;12.40;;;6.00;85.20;;;;;;4920274;29;20215;-78
2023/03/05 01:54:52;;;;;;;17.90;11.90;;;6.00;85.30;;;;;;4915088;29;20326;-78
2023/03/05 01:57:29;;;;;;;14.77;10.87;;;6.00;85.30;;;;;;4937393;29;20221;-78
2023/03/05 02:00:01;;;;;;;20.77;11.93;;;6.00;85.00;;;;;;4936044;29;20206;-78
2023/03/05 02:02:40;;;;;;;20.90;11.47;;;5.90;84.90;;;;;;4937843;29;20347;-78
2023/03/05 02:05:30;;;;;;;19.37;12.37;;;5.90;85.00;;;;;;4923209;29;20642;-78
2023/03/05 02:08:00;;;;;;;21.80;11.93;;;5.90;85.10;;;;;;4940051;29;20298;-78
2023/03/05 02:10:41;;;;;;;17.40;11.43;;;5.90;85.00;;;;;;4933081;29;20350;-78
2023/03/05 02:13:12;;;;;;;19.23;11.77;;;5.90;85.00;;;;;;4937884;29;20255;-78
2023/03/05 02:15:40;;;;;;;15.43;10.43;;;5.90;85.00;;;;;;4930627;29;20235;-77
2023/03/05 02:18:09;;;;;;;18.53;11.80;;;5.90;85.10;;;;;;4932531;29;20265;-78
2023/03/05 02:20:56;;;;;;;17.13;11.43;;;5.80;85.10;;;;;;4933471;29;20213;-79
2023/03/05 02:23:27;;;;;;;18.67;12.00;;;5.90;85.20;;;;;;4937483;29;20317;-78
2023/03/05 02:25:56;;;;;;;21.00;12.00;;;5.80;85.00;;;;;;4937944;29;20210;-78
2023/03/05 02:28:37;;;;;;;22.13;11.53;;;5.80;85.00;;;;;;4943107;29;20214;-78
2023/03/05 02:31:18;;;;;;;24.37;13.23;;;5.80;85.10;;;;;;4926487;29;20211;-78
2023/03/05 02:33:46;;;;;;;21.17;12.03;;;5.80;85.10;;;;;;4938486;29;20661;-78
2023/03/05 02:36:15;;;;;;;17.70;11.50;;;5.80;85.10;;;;;;4937649;29;20251;-78
2023/03/05 02:38:43;;;;;;;20.37;11.60;;;5.80;85.20;;;;;;4940234;29;20199;-78
2023/03/05 02:41:12;;;;;;;20.47;12.23;;;5.70;85.00;;;;;;4942153;29;20291;-79
2023/03/05 02:43:40;;;;;;;20.33;11.73;;;5.80;84.90;;;;;;4929396;29;20218;-78
2023/03/05 02:46:07;;;;;;;20.37;13.10;;;5.70;85.10;;;;;;4943274;29;20255;-78
2023/03/05 02:48:35;;;;;;;18.90;12.17;;;5.70;85.30;;;;;;4929380;29;20207;-78
2023/03/05 02:51:05;;;;;;;20.53;12.27;;;5.70;85.30;;;;;;4935119;29;20219;-79
2023/03/05 02:53:32;;;;;;;16.13;12.00;;;5.60;85.20;;;;;;4937907;29;20664;-78
2023/03/05 02:56:00;;;;;;;20.47;12.47;;;5.60;85.00;;;;;;4934767;29;20208;-78
2023/03/05 02:58:28;;;;;;;18.40;11.77;;;5.60;84.90;;;;;;4934157;29;20207;-78
2023/03/05 03:00:56;;;;;;;19.73;13.10;;;5.60;85.00;;;;;;4928871;29;20278;-78
2023/03/05 03:03:23;;;;;;;21.23;11.83;;;5.50;85.20;;;;;;4939357;29;20312;-78
2023/03/05 03:05:50;;;;;;;15.97;11.33;;;5.50;85.50;;;;;;4923249;29;20231;-78
2023/03/05 03:08:17;;;;;;;16.47;11.93;;;5.40;85.50;;;;;;4922080;29;20246;-78
2023/03/05 03:10:44;;;;;;;18.63;12.27;;;5.40;85.70;;;;;;4929109;29;20248;-78
2023/03/05 03:13:12;;;;;;;17.13;11.83;;;5.40;85.90;;;;;;4924476;29;20227;-78
2023/03/05 03:15:39;;;;;;;20.40;11.77;;;5.40;86.10;;;;;;4928897;29;20210;-78
2023/03/05 03:18:06;;;;;;;18.93;11.37;;;5.40;86.20;;;;;;4931335;29;20207;-78
2023/03/05 03:20:37;;;;;;;18.23;11.43;;;5.30;86.20;;;;;;4920998;29;20258;-78
2023/03/05 03:23:06;;;;;;;23.73;12.60;;;5.30;86.30;;;;;;4935130;29;20697;-78
2023/03/05 03:25:33;;;;;;;16.67;11.13;;;5.30;86.20;;;;;;4933598;29;20294;-78
2023/03/05 03:28:00;;;;;;;18.43;11.33;;;5.20;86.20;;;;;;4934968;29;20713;-79
2023/03/05 03:30:32;;;;;;;18.67;11.13;;;5.10;86.80;;;;;;4930385;29;20659;-78
2023/03/05 03:33:00;;;;;;;17.33;11.63;;;5.10;86.30;;;;;;4935474;29;20222;-78
2023/03/05 03:35:27;;;;;;;14.93;11.73;;;5.00;86.60;;;;;;4928089;29;20229;-78
2023/03/05 03:37:56;;;;;;;15.47;10.97;;;5.00;87.00;;;;;;4938063;29;20272;-78
2023/03/05 03:40:23;;;;;;;18.13;11.47;;;5.00;87.30;;;;;;4928746;29;20593;-78
2023/03/05 03:42:51;;;;;;;22.20;11.67;;;4.90;87.50;;;;;;4940169;29;20629;-78
2023/03/05 03:45:20;;;;;;;24.97;14.33;;;4.90;87.80;;;;;;4940865;29;20222;-78
2023/03/05 03:47:48;;;;;;;20.67;10.30;;;4.90;88.00;;;;;;4921737;29;20277;-78
2023/03/05 03:50:20;;;;;;;17.57;11.80;;;4.90;88.10;;;;;;4941449;29;20219;-78
2023/03/05 03:52:47;;;;;;;19.97;11.73;;;4.90;87.60;;;;;;4924849;29;20210;-78
2023/03/05 03:55:15;;;;;;;20.40;12.40;;;4.90;87.40;;;;;;4941060;29;20248;-78
2023/03/05 03:57:42;;;;;;;20.87;13.40;;;4.80;87.40;;;;;;4937026;29;20206;-78
2023/03/05 04:00:10;;;;;;;19.03;12.77;;;4.80;87.70;;;;;;4926655;29;20229;-78
2023/03/05 04:02:41;;;;;;;21.40;12.37;;;4.80;88.10;;;;;;4922338;29;20227;-78
2023/03/05 04:05:10;;;;;;;16.83;11.60;;;4.80;88.30;;;;;;4941421;29;20235;-79
2023/03/05 04:07:37;;;;;;;15.93;11.53;;;4.80;88.40;;;;;;4934978;29;20217;-78
2023/03/05 04:10:05;;;;;;;17.87;11.53;;;4.80;88.50;;;;;;4933491;29;20209;-78
2023/03/05 04:12:32;;;;;;;18.53;12.63;;;4.80;88.60;;;;;;4937517;29;20237;-77
2023/03/05 04:14:59;;;;;;;19.23;11.70;;;4.80;88.60;;;;;;4940380;29;20225;-78
2023/03/05 04:17:26;;;;;;;19.13;12.13;;;4.80;88.60;;;;;;4922472;29;20590;-79
2023/03/05 04:19:53;;;;;;;18.30;11.67;;;4.80;88.50;;;;;;4926007;29;20206;-79
2023/03/05 04:22:20;;;;;;;15.43;11.27;;;4.80;88.40;;;;;;4919074;29;20318;-78
2023/03/05 04:24:47;;;;;;;18.00;10.53;;;4.70;88.30;;;;;;4942119;29;20239;-78
2023/03/05 04:27:15;;;;;;;17.53;11.80;;;4.70;88.40;;;;;;4936817;29;20638;-78
2023/03/05 04:29:42;;;;;;;16.83;11.23;;;4.70;88.30;;;;;;4944941;29;20272;-78
2023/03/05 04:32:09;;;;;;;15.07;10.13;;;4.70;88.00;;;;;;4930709;29;20526;-78
2023/03/05 04:34:37;;;;;;;19.73;11.17;;;4.70;87.80;;;;;;4918511;29;20302;-78
2023/03/05 04:37:05;;;;;;;14.90;10.40;;;4.60;87.50;;;;;;4943593;29;20293;-79
2023/03/05 04:39:32;;;;;;;16.20;10.63;;;4.60;87.60;;;;;;4936692;29;20816;-79
2023/03/05 04:41:59;;;;;;;21.77;10.83;;;4.60;87.70;;;;;;4932840;29;20229;-78
2023/03/05 04:44:26;;;;;;;14.17;9.90;;;4.60;87.90;;;;;;4922561;29;20215;-78
2023/03/05 04:46:53;;;;;;;16.67;11.77;;;4.60;87.90;;;;;;4931500;29;20502;-79
2023/03/05 04:49:23;;;;;;;19.83;10.93;;;4.60;88.00;;;;;;4935548;29;20236;-78
2023/03/05 04:51:50;;;;;;;19.03;10.97;;;4.60;88.00;;;;;;4937441;29;20221;-78
2023/03/05 04:54:17;;;;;;;15.53;10.57;;;4.70;88.00;;;;;;4922097;29;20222;-78
2023/03/05 04:56:44;;;;;;;18.07;10.97;;;4.60;87.90;;;;;;4934998;29;20268;-78
2023/03/05 04:59:12;;;;;;;14.73;9.97;;;4.60;88.00;;;;;;4939190;29;20334;-78
2023/03/05 05:01:39;;;;;;;18.93;11.07;;;4.60;88.10;;;;;;4932632;29;20664;-78
2023/03/05 05:04:06;;;;;;;16.00;10.53;;;4.60;87.90;;;;;;4920894;29;20214;-78
2023/03/05 05:06:33;;;;;;;19.60;11.77;;;4.60;88.00;;;;;;4925992;29;20316;-78
2023/03/05 05:09:00;;;;;;;17.03;10.33;;;4.60;88.20;;;;;;4938043;29;20217;-78
2023/03/05 05:11:28;;;;;;;16.80;10.63;;;4.60;88.30;;;;;;4937305;29;20226;-78
2023/03/05 05:13:55;;;;;;;15.83;10.50;;;4.60;88.20;;;;;;4943134;29;20309;-78
2023/03/05 05:16:23;;;;;;;15.30;9.90;;;4.60;88.20;;;;;;4937042;29;20257;-78
2023/03/05 05:18:50;;;;;;;14.47;9.93;;;4.60;88.20;;;;;;4937545;29;20209;-78
2023/03/05 05:21:19;;;;;;;17.53;10.27;;;4.60;88.20;;;;;;4940628;29;20629;-78
2023/03/05 05:23:46;;;;;;;13.53;9.33;;;4.60;88.30;;;;;;4925923;29;20305;-78
2023/03/05 05:26:13;;;;;;;14.77;9.53;;;4.60;88.30;;;;;;4932558;29;20281;-78
2023/03/05 05:28:42;;;;;;;11.93;9.23;;;4.50;88.20;;;;;;4932296;29;20289;-77
2023/03/05 05:31:12;;;;;;;14.10;9.23;;;4.50;88.20;;;;;;4932685;29;20256;-78
2023/03/05 05:33:40;;;;;;;13.57;9.23;;;4.50;88.40;;;;;;4932264;29;20202;-78
2023/03/05 05:36:12;;;;;;;16.43;9.90;;;4.50;88.40;;;;;;4920706;29;20199;-78
2023/03/05 05:38:39;;;;;;;14.20;9.50;;;4.50;88.40;;;;;;4937630;29;20572;-78
2023/03/05 05:41:09;;;;;;;17.43;9.53;;;4.50;88.40;;;;;;4929920;29;20632;-78
2023/03/05 05:43:37;;;;;;;16.90;9.73;;;4.50;88.30;;;;;;4932548;29;20559;-79
2023/03/05 05:46:07;;;;;;;16.87;9.83;;;4.50;88.10;;;;;;4937175;29;20198;-78
2023/03/05 05:48:35;;;;;;;21.93;10.80;;;4.50;88.20;;;;;;4932065;29;20527;-78
2023/03/05 05:51:14;;;;;;;14.03;9.93;;;4.60;88.40;;;;;;4935959;29;20206;-78
2023/03/05 05:53:42;;;;;;;12.77;9.00;;;4.60;88.30;;;;;;4917210;29;20198;-78
2023/03/05 05:56:10;;;;;;;15.87;8.27;;;4.60;88.10;;;;;;4927997;29;20217;-78
2023/03/05 05:58:39;;;;;;;14.87;8.33;;;4.60;88.10;;;;;;4937157;29;20199;-79
2023/03/05 06:01:33;;;;;;;18.27;9.40;;;4.60;88.10;;;;;;4933582;29;20213;-78
2023/03/05 06:04:04;;;;;;;22.10;10.23;;;4.70;88.10;;;;;;4937185;29;20553;-78
2023/03/05 06:06:33;;;;;;;11.90;7.87;;;4.80;87.80;;;;;;4934549;29;20214;-78
2023/03/05 06:09:01;;;;;;;18.30;8.97;;;4.90;87.30;;;;;;4931625;29;20246;-78
2023/03/05 06:11:29;;;;;;;15.83;8.47;;;5.00;87.00;;;;;;4936336;29;20268;-78
2023/03/05 06:13:56;;;;;;;16.67;8.10;;;5.00;86.50;;;;;;4931884;29;20233;-78
2023/03/05 06:16:24;;;;;;;12.90;8.00;;;5.10;86.20;;;;;;4931898;29;20533;-78
2023/03/05 06:18:52;;;;;;;10.70;8.27;;;5.20;86.10;;;;;;4936614;29;20199;-78
2023/03/05 06:21:21;;;;;;;14.20;8.17;;;5.20;85.90;;;;;;4939051;29;20395;-78
2023/03/05 06:23:50;;;;;;;10.93;7.70;;;5.30;85.70;;;;;;4935884;29;20320;-78
2023/03/05 06:26:19;;;;;;;13.60;8.07;;;5.40;85.50;;;;;;4940892;29;20225;-79
2023/03/05 06:28:47;;;;;;;11.63;7.60;;;5.50;85.30;;;;;;4927235;29;20611;-78
2023/03/05 06:31:17;;;;;;;16.47;8.97;;;5.60;85.30;;;;;;4932182;29;20265;-78
2023/03/05 06:33:45;;;;;;;16.80;9.43;;;5.70;85.00;;;;;;4933174;29;20265;-78
2023/03/05 06:36:15;;;;;;;13.50;8.23;;;5.80;84.40;;;;;;4927115;29;20278;-78
2023/03/05 06:38:43;;;;;;;13.40;7.60;;;6.00;84.10;;;;;;4932803;29;20625;-78
2023/03/05 06:41:13;;;;;;;14.37;8.43;;;6.10;83.90;;;;;;4925201;29;20255;-78
2023/03/05 06:43:43;;;;;;;11.17;8.03;;;6.30;83.20;;;;;;4931501;29;20188;-77
2023/03/05 06:46:23;;;;;;;13.87;7.33;;;6.40;82.30;;;;;;4928903;29;20225;-80
2023/03/05 06:48:51;;;;;;;13.53;7.97;;;6.50;82.20;;;;;;4938466;29;20206;-78
2023/03/05 06:51:26;;;;;;;13.80;7.93;;;6.50;82.30;;;;;;4934107;29;20270;-78
2023/03/05 06:53:55;;;;;;;10.90;7.47;;;6.40;82.50;;;;;;4937238;29;20709;-78
2023/03/05 06:56:24;;;;;;;13.20;7.67;;;6.50;82.80;;;;;;4932559;29;20206;-77
2023/03/05 06:58:51;;;;;;;16.13;9.17;;;6.50;83.00;;;;;;4923190;29;20200;-79
2023/03/05 07:01:20;;;;;;;15.00;9.53;;;6.50;83.20;;;;;;4937701;29;20214;-78
2023/03/05 07:03:49;;;;;;;11.30;8.07;;;6.60;83.50;;;;;;4937118;29;20204;-78
2023/03/05 07:06:17;;;;;;;15.27;8.93;;;6.60;83.50;;;;;;4933150;29;20212;-78
2023/03/05 07:08:49;;;;;;;15.43;9.03;;;6.70;83.50;;;;;;4929098;29;20216;-78
2023/03/05 07:11:19;;;;;;;15.80;9.17;;;6.70;83.40;;;;;;4933625;29;20212;-78
2023/03/05 07:13:48;;;;;;;13.27;9.30;;;6.80;83.50;;;;;;4932094;29;20690;-78
2023/03/05 07:16:23;;;;;;;13.93;9.67;;;6.90;83.60;;;;;;4934569;29;20322;-78
2023/03/05 07:18:58;;;;;;;14.73;9.67;;;7.10;83.70;;;;;;4926489;29;20196;-78
2023/03/05 07:21:30;;;;;;;12.70;8.77;;;7.20;83.50;;;;;;4923904;29;20700;-78
2023/03/05 07:24:00;;;;;;;18.93;10.10;;;7.40;83.10;;;;;;4926937;29;20250;-78
2023/03/05 07:26:29;;;;;;;14.63;10.03;;;7.60;82.70;;;;;;4925150;29;20330;-78
2023/03/05 07:28:56;;;;;;;15.83;9.47;;;7.80;82.40;;;;;;4927953;29;20286;-79
2023/03/05 07:31:30;;;;;;;18.23;10.73;;;8.00;82.00;;;;;;4924422;29;20215;-78
2023/03/05 07:34:00;;;;;;;13.43;9.20;;;8.20;81.50;;;;;;4927179;29;20219;-78
2023/03/05 07:36:29;;;;;;;15.10;10.17;;;8.30;81.00;;;;;;4925711;29;20209;-80
2023/03/05 07:38:56;;;;;;;17.57;9.10;;;8.40;80.70;;;;;;4937058;29;20551;-79
2023/03/05 07:41:24;;;;;;;18.03;10.47;;;8.60;80.50;;;;;;4932852;29;20541;-78
2023/03/05 07:43:53;;;;;;;16.27;10.27;;;8.70;80.10;;;;;;4921114;29;20222;-78
2023/03/05 07:46:23;;;;;;;14.83;9.13;;;8.80;79.60;;;;;;4926863;29;20210;-79
2023/03/05 07:48:53;;;;;;;17.73;9.23;;;8.90;79.40;;;;;;4932924;29;20214;-79
2023/03/05 07:51:23;;;;;;;13.23;8.73;;;9.10;79.20;;;;;;4927764;29;20296;-79
2023/03/05 07:53:57;;;;;;;10.97;8.37;;;9.20;78.90;;;;;;4937231;29;20219;-78
2023/03/05 07:56:31;;;;;;;15.80;8.77;;;9.40;78.60;;;;;;4917576;29;20546;-79
2023/03/05 07:59:10;;;;;;;13.40;8.60;;;9.60;78.70;;;;;;4917085;29;20621;-78
2023/03/05 08:01:37;;;;;;;13.87;9.77;;;9.70;77.50;;;;;;4917672;29;20201;-78
2023/03/05 08:04:06;;;;;;;16.47;9.33;;;9.90;77.10;;;;;;4933312;29;20204;-79
2023/03/05 08:06:34;;;;;;;16.87;10.33;;;10.10;76.80;;;;;;4932331;29;20251;-79
2023/03/05 08:09:01;;;;;;;14.30;10.10;;;10.20;76.30;;;;;;4930023;29;20266;-79
2023/03/05 08:11:29;;;;;;;17.73;9.87;;;10.40;75.70;;;;;;4926486;29;20211;-79
2023/03/05 08:18:32;;;;;;;20.30;10.30;;;10.70;74.50;;;;;;4879753;29;20243;-78
2023/03/05 08:21:01;;;;;;;16.50;10.77;;;11.00;73.90;;;;;;4861184;29;20269;-80
2023/03/05 08:23:28;;;;;;;15.73;10.87;;;11.20;73.80;;;;;;4873013;29;20236;-81
2023/03/05 08:25:56;;;;;;;15.67;10.93;;;11.30;72.80;;;;;;4871469;29;20672;-80
2023/03/05 08:28:24;;;;;;;15.90;11.13;;;11.30;71.30;;;;;;4885637;29;20222;-81
2023/03/05 08:30:51;;;;;;;14.53;10.70;;;11.30;70.30;;;;;;4883228;29;20218;-80
2023/03/05 08:33:19;;;;;;;16.00;10.67;;;11.30;70.70;;;;;;4880327;29;20234;-79
2023/03/05 08:35:46;;;;;;;18.37;10.50;;;11.30;71.10;;;;;;4877270;29;20658;-80
2023/03/05 08:38:13;;;;;;;18.10;11.00;;;11.30;70.80;;;;;;4881352;29;20556;-80
2023/03/05 08:40:42;;;;;;;15.70;10.93;;;11.30;71.20;;;;;;4874597;29;20276;-80
2023/03/05 08:43:09;;;;;;;20.53;10.40;;;11.40;71.90;;;;;;4876790;29;20308;-79
2023/03/05 08:45:38;;;;;;;17.57;11.77;;;11.60;72.00;;;;;;4864130;29;20248;-81
2023/03/05 08:48:06;;;;;;;17.77;10.63;;;11.80;71.60;;;;;;4883484;29;20231;-80
2023/03/05 08:50:35;;;;;;;18.27;10.70;;;11.90;71.10;;;;;;4886014;29;20222;-80
2023/03/05 08:53:05;;;;;;;15.53;10.47;;;12.10;70.80;;;;;;4870644;29;20307;-80
2023/03/05 08:55:32;;;;;;;20.47;9.90;;;12.30;70.40;;;;;;4924360;29;20565;-80
2023/03/05 08:57:59;;;;;;;17.13;10.97;;;12.40;70.50;;;;;;4915522;29;20298;-80
2023/03/05 09:00:27;;;;;;;18.73;11.37;;;12.60;70.70;;;;;;4919593;29;20226;-80
2023/03/05 09:02:54;;;;;;;16.17;11.60;;;12.80;70.50;;;;;;4922408;29;20200;-80
2023/03/05 09:05:22;;;;;;;13.63;10.53;;;12.90;70.20;;;;;;4921524;29;20214;-80
2023/03/05 09:07:49;;;;;;;13.53;9.77;;;13.00;69.60;;;;;;4911986;29;20622;-81
2023/03/05 09:10:17;;;;;;;17.20;10.60;;;13.10;69.30;;;;;;4931677;29;20218;-80
2023/03/05 09:12:44;;;;;;;15.73;10.47;;;13.20;68.90;;;;;;4936825;29;20199;-80
2023/03/05 09:15:11;;;;;;;16.87;11.10;;;13.30;68.30;;;;;;4922205;29;20266;-80
2023/03/05 09:17:40;;;;;;;14.43;10.53;;;13.50;67.70;;;;;;4917673;29;20293;-80
2023/03/05 09:20:11;;;;;;;15.73;10.50;;;13.60;67.60;;;;;;4931872;29;20541;-80
2023/03/05 09:22:39;;;;;;;18.63;11.20;;;13.70;67.30;;;;;;4932073;29;20310;-81
2023/03/05 09:25:08;;;;;;;17.70;10.10;;;13.80;66.70;;;;;;4927118;29;20650;-81
2023/03/05 09:27:36;;;;;;;18.33;11.40;;;13.90;66.00;;;;;;4914669;29;20232;-79
2023/03/05 09:30:06;;;;;;;14.00;9.93;;;13.90;65.70;;;;;;4929296;29;20286;-79
2023/03/05 09:32:33;;;;;;;16.20;10.73;;;14.00;66.00;;;;;;4921770;29;20210;-79
2023/03/05 09:35:00;;;;;;;16.40;10.87;;;14.20;66.30;;;;;;4920093;29;20231;-79
2023/03/05 09:37:28;;;;;;;16.07;11.10;;;14.30;66.70;;;;;;4937247;29;20275;-79
2023/03/05 09:39:56;;;;;;;14.73;10.90;;;14.40;65.80;;;;;;4924912;29;20203;-79
2023/03/05 09:43:01;;;;;;;20.57;11.30;;;14.60;65.20;;;;;;4921594;29;20302;-79
2023/03/05 09:45:38;;;;;;;24.77;12.23;;;14.70;65.30;;;;;;4923606;29;20214;-80
2023/03/05 09:48:14;;;;;;;18.43;13.17;;;14.70;64.60;;;;;;4931241;29;20661;-80
2023/03/05 09:51:02;;;;;;;20.10;12.70;;;14.70;64.00;;;;;;4929055;29;20203;-79
2023/03/05 09:53:49;;;;;;;15.83;11.47;;;14.70;63.80;;;;;;4934793;29;20217;-80
2023/03/05 09:56:24;;;;;;;17.10;11.20;;;14.70;63.60;;;;;;4931822;29;20239;-79
2023/03/05 09:58:56;;;;;;;18.43;12.60;;;14.70;62.60;;;;;;4934819;29;20203;-79
2023/03/05 10:01:33;;;;;;;21.03;12.33;;;14.80;63.20;;;;;;4925998;29;20224;-79
2023/03/05 10:04:22;;;;;;;22.90;12.53;;;14.90;63.20;;;;;;4936895;29;20207;-80
2023/03/05 10:06:56;;;;;;;22.33;12.87;;;15.00;63.10;;;;;;4934398;29;20208;-79
2023/03/05 10:09:29;;;;;;;18.23;11.47;;;15.00;63.70;;;;;;4916821;29;20219;-79
2023/03/05 10:12:01;;;;;;;16.43;11.53;;;15.00;63.40;;;;;;4932910;29;20223;-79
2023/03/05 10:14:32;;;;;;;17.23;11.70;;;15.10;63.60;;;;;;4929328;29;20330;-79
2023/03/05 10:17:02;;;;;;;18.43;11.13;;;15.10;63.60;;;;;;4937241;29;20211;-79
2023/03/05 10:20:14;;;;;;;19.47;12.00;;;15.20;63.90;;;;;;4939706;29;20211;-81
2023/03/05 10:22:54;;;;;;;17.13;11.23;;;15.30;63.40;;;;;;4931717;29;20342;-80
2023/03/05 10:25:33;;;;;;;17.70;12.10;;;15.20;63.10;;;;;;4924543;29;20207;-79
2023/03/05 10:28:16;;;;;;;19.90;13.43;;;15.20;63.30;;;;;;4922620;29;20222;-79
2023/03/05 10:31:18;;;;;;;17.40;12.90;;;15.20;62.70;;;;;;4938591;29;20212;-78
2023/03/05 10:34:10;;;;;;;22.77;13.33;;;15.30;62.50;;;;;;4914342;29;20246;-78
2023/03/05 10:37:03;;;;;;;19.30;13.10;;;15.40;63.40;;;;;;4925934;29;20220;-79
2023/03/05 10:39:51;;;;;;;17.37;12.03;;;15.50;63.00;;;;;;4922102;29;20228;-79
2023/03/05 10:42:27;;;;;;;19.10;12.27;;;15.60;62.20;;;;;;4930116;28;20203;-77
2023/03/05 10:45:11;;;;;;;19.80;14.17;;;15.70;62.20;;;;;;4926847;29;20310;-79
2023/03/05 10:47:50;;;;;;;19.00;13.07;;;15.80;61.80;;;;;;4915985;29;20212;-79
2023/03/05 10:50:22;;;;;;;17.83;11.87;;;15.90;61.10;;;;;;4935894;29;20226;-79
2023/03/05 10:53:12;;;;;;;16.50;10.37;;;15.90;60.90;;;;;;4917604;29;20206;-78
2023/03/05 10:55:40;;;;;;;22.80;12.33;;;16.00;60.80;;;;;;4929064;29;20300;-77
2023/03/05 10:58:17;;;;;;;20.33;12.43;;;16.10;60.60;;;;;;4914139;29;20262;-77
2023/03/05 11:01:03;;;;;;;17.67;12.20;;;16.20;59.70;;;;;;4919041;29;20202;-77
2023/03/05 11:03:49;;;;;;;18.53;12.07;;;16.30;59.80;;;;;;4933923;29;20202;-78
2023/03/05 11:06:35;;;;;;;16.80;11.70;;;16.40;59.10;;;;;;4917092;29;20230;-79
2023/03/05 11:09:28;;;;;;;16.83;12.67;;;16.50;58.30;;;;;;4912910;29;20216;-79
2023/03/05 11:12:18;;;;;;;16.97;11.77;;;16.50;58.90;;;;;;4926506;29;20209;-77
2023/03/05 11:15:04;;;;;;;19.07;12.17;;;16.70;59.10;;;;;;4931529;29;20199;-78
2023/03/05 11:17:41;;;;;;;18.20;12.07;;;16.80;58.50;;;;;;4934070;29;20212;-79
2023/03/05 11:20:30;;;;;;;16.57;11.90;;;16.90;58.40;;;;;;4929164;29;20233;-78
2023/03/05 11:23:23;;;;;;;18.87;10.73;;;17.00;58.00;;;;;;4932896;29;20257;-78
2023/03/05 11:25:59;;;;;;;13.97;10.53;;;17.10;57.10;;;;;;4915571;29;20302;-80
2023/03/05 11:28:39;;;;;;;16.20;11.70;;;17.20;55.90;;;;;;4928877;29;20232;-79
2023/03/05 11:31:23;;;;;;;17.23;11.80;;;17.20;55.40;;;;;;4914418;29;20312;-79
2023/03/05 11:34:22;;;;;;;17.27;12.10;;;17.10;55.30;;;;;;4911915;29;20209;-83
2023/03/05 11:36:53;;;;;;;16.50;12.07;;;17.00;55.40;;;;;;4918739;29;20240;-79
2023/03/05 11:39:22;;;;;;;17.70;11.37;;;17.00;56.20;;;;;;4921969;29;20204;-78
2023/03/05 11:42:00;;;;;;;18.03;11.30;;;17.00;56.60;;;;;;4929591;29;20234;-79
2023/03/05 11:44:58;;;;;;;16.93;10.03;;;17.10;56.30;;;;;;4915561;29;20309;-80
2023/03/05 11:47:27;;;;;;;18.13;10.10;;;17.20;55.00;;;;;;4926867;29;20300;-78
2023/03/05 11:50:33;;;;;;;16.17;9.37;;;17.30;55.00;;;;;;4929057;29;20704;-79
2023/03/05 11:53:10;;;;;;;16.30;10.93;;;17.30;54.40;;;;;;4911204;29;20285;-79
2023/03/05 11:55:42;;;;;;;14.07;10.23;;;17.40;53.40;;;;;;4933541;29;20232;-78
2023/03/05 11:58:44;;;;;;;19.37;11.43;;;17.40;53.90;;;;;;4942323;29;20207;-78
2023/03/05 12:01:22;;;;;;;14.63;9.77;;;17.50;54.30;;;;;;4933908;29;20216;-78
2023/03/05 12:03:50;;;;;;;11.10;9.23;;;17.70;54.30;;;;;;4932984;29;20209;-78
2023/03/05 12:06:28;;;;;;;13.33;9.07;;;17.80;54.00;;;;;;4935047;29;20217;-77
2023/03/05 12:08:59;;;;;;;15.10;8.60;;;17.90;53.70;;;;;;4935181;29;20645;-78
2023/03/05 12:11:29;;;;;;;14.77;8.90;;;17.90;52.30;;;;;;4927145;29;20222;-79
2023/03/05 12:14:13;;;;;;;14.37;7.93;;;17.90;50.00;;;;;;4937560;29;20912;-79
2023/03/05 12:17:04;;;;;;;13.30;8.97;;;17.80;50.20;;;;;;4929921;29;20239;-79
2023/03/05 12:20:00;;;;;;;13.27;8.10;;;17.80;50.50;;;;;;4936174;29;20200;-79
2023/03/05 12:22:35;;;;;;;11.50;8.70;;;17.80;49.60;;;;;;4912273;29;20253;-79
2023/03/05 12:25:24;;;;;;;12.27;8.67;;;17.80;49.50;;;;;;4931756;29;20705;-79
2023/03/05 12:27:51;;;;;;;12.00;5.93;;;17.80;49.30;;;;;;4936620;29;20595;-78
2023/03/05 12:30:34;;;;;;;7.87;4.97;;;17.80;49.30;;;;;;4914663;29;20211;-78
2023/03/05 12:33:04;;;;;;;11.10;6.13;;;17.80;47.30;;;;;;4925766;29;20930;-77
2023/03/05 12:35:39;;;;;;;11.27;5.77;;;17.80;47.70;;;;;;4915318;29;20270;-78
2023/03/05 12:38:45;;;;;;;12.00;5.40;;;17.80;47.30;;;;;;4929713;29;20211;-79
2023/03/05 12:41:24;;;;;;;11.67;6.23;;;17.90;48.20;;;;;;4927599;29;20216;-77
2023/03/05 12:44:06;;;;;;;11.00;7.20;;;18.00;47.90;;;;;;4920356;29;20266;-78
2023/03/05 12:46:39;;;;;;;13.27;5.90;;;18.00;47.50;;;;;;4928349;29;20212;-78
2023/03/05 12:49:27;;;;;;;10.47;5.57;;;18.00;46.30;;;;;;4935147;29;20238;-78
2023/03/05 12:51:58;;;;;;;10.67;5.63;;;18.00;46.60;;;;;;4929365;29;20752;-78
2023/03/05 12:54:43;;;;;;;11.83;5.70;;;18.10;47.10;;;;;;4931400;29;20214;-78
2023/03/05 12:57:16;;;;;;;8.00;5.37;;;18.10;46.30;;;;;;4934208;29;20225;-78
2023/03/05 12:59:54;;;;;;;10.10;5.97;;;18.20;46.40;;;;;;4928319;29;20211;-78
2023/03/05 13:02:34;;;;;;;8.37;5.80;;;18.20;47.20;;;;;;4935631;29;20202;-79
2023/03/05 13:05:13;;;;;;;15.87;6.07;;;18.20;45.70;;;;;;4930950;29;20245;-77
2023/03/05 13:07:41;;;;;;;11.00;5.93;;;18.10;45.20;;;;;;4920314;29;20211;-78
2023/03/05 13:10:25;;;;;;;12.10;4.80;;;18.10;45.20;;;;;;4929064;29;20219;-77
2023/03/05 13:12:55;;;;;;;7.53;4.40;;;18.00;45.70;;;;;;4919310;29;20285;-77
2023/03/05 13:15:25;;;;;;;10.47;5.13;;;18.00;46.00;;;;;;4929446;29;20212;-79